Decoded Metar for UKOO (ODESSA in UKRAINE) (IATA:ODS) | Meteo·Mobile Aviation Weather
aviador You're here:

UKOO Decoded Metar

ODESSA in UKRAINE
Report Time2018-08-21 10:30:00
UTC Time2018-08-21 10:37:23
Flight Rules vfr VFR
Wind130° at 6 kt
W.Decomp.*RWY 16: 5.0 kt HW 3.4 kt LCW
W.Rank130° ranks 27
Current wind is below 130° avg. (7.5)
Visibility9999 m
Phenomena:N/A
Clouds:N/A
Expected CloudBase > 6,800 ft AGL from Temp-Dew spread
CeilingNone
Temp29°C (ISA +14)
Dew Point12°C (35% RH)
Heat Index28.2°C
AAT27.5°C
QNH1015 hPa
Density Alt1,873 ft
Elevation115 ft
Report Wrong Elevation
Raw Report
UKOO 211030Z 13003MPS 100V190 CAVOK 29/12 Q1015 R16/090060
NOSIG=

Extra information for UKOO:More info

Metar Taf Metar & Taf Last 4 Metars F.Rules Stats Wind Profile Meteogram Temp Stats Airport Information Weather charts Add Link Nearby VenuesMetar ALERT Operation Metar Decoded Social comments